ADDS METAR Data INFO
IDs: Format: Raw Decoded Include TAF

Data at: 0453 UTC 20 Apr 2018

KTOR 200353Z AUTO 12020G30KT 10SM CLR 09/M02 A3004 RMK AO2 PK WND 11031/0337 SLP164 T00891017
KTOR 200253Z AUTO 10020KT 10SM CLR 09/M01 A3003 RMK AO2 PK WND 10027/0238 SLP168 T00941006 55001
KTOR 200153Z AUTO 12016G23KT 10SM CLR 12/M02 A3003 RMK AO2 PK WND 12027/0116 SLP167 T01221022
KTOR 200053Z AUTO 13019G29KT 10SM CLR 14/M03 A3003 RMK AO2 PK WND 14033/0015 SLP168 T01391028
KTOR 192353Z AUTO 13020G29KT 10SM CLR 16/M03 A3004 RMK AO2 PK WND 14033/2335 SLP170 T01611028 10178 20128 56016
KTOR 192253Z AUTO 15020G31KT 10SM CLR 16/M03 A3005 RMK AO2 PK WND 15036/2158 SLP177 T01561033
KTOR 192153Z AUTO 16024G35KT 10SM CLR 18/M03 A3007 RMK AO2 PK WND 15035/2146 SLP179 T01781033
KTOR 192053Z AUTO 14021G34KT 10SM CLR 17/M03 A3009 RMK AO2 PK WND 15035/1958 SLP188 T01671028 58036
KTOR 191953Z AUTO 14024G33KT 10SM CLR 17/M03 A3013 RMK AO2 PK WND 14033/1945 SLP199 T01671028
KTOR 191853Z AUTO 14024G31KT 10SM CLR 15/M03 A3017 RMK AO2 PK WND 17036/1819 SLP217 T01501033
KTOR 191753Z AUTO 14023G30KT 10SM CLR 13/M03 A3021 RMK AO2 PK WND 13032/1733 SLP231 T01281028 10133 21022 58021
KTOR 191653Z AUTO 14022G28KT 10SM CLR 11/M03 A3024 RMK AO2 PK WND 16029/1635 SLP244 T01111033
KTOR 191553Z AUTO 12015G21KT 10SM CLR 08/M01 A3025 RMK AO2 SLP252 T00831006
KTOR 191453Z AUTO 13010KT 10SM CLR 04/00 A3028 RMK AO2 SLP264 T00440000 58003
KTOR 191353Z AUTO 12011KT 10SM CLR 02/M01 A3030 RMK AO2 SLP269 T00171006
KTOR 191253Z AUTO 11008KT 10SM CLR M01/M02 A3030 RMK AO2 SLP266 T10111017
KTOR 191153Z AUTO 11007KT 10SM CLR M02/M03 A3029 RMK AO2 SLP265 T10221033 10006 21033 53003
KTOR 191053Z AUTO 10006KT 10SM CLR M03/M04 A3029 RMK AO2 SLP264 T10281044
KTOR 190953Z AUTO 08006KT 10SM CLR M03/M05 A3028 RMK AO2 SLP262 T10281050
KTOR 190853Z AUTO 09006KT 10SM CLR M03/M05 A3028 RMK AO2 SLP261 T10281050 53005
KTOR 190753Z AUTO 10005KT 10SM CLR M02/M04 A3027 RMK AO2 SLP258 T10171044
KTOR 190653Z AUTO 09006KT 10SM CLR M01/M04 A3027 RMK AO2 SLP258 T10061044 401281022
KTOR 190553Z AUTO 12006KT 10SM CLR 00/M04 A3026 RMK AO2 SLP255 T00001044 10122 20000 51010
KTOR 190453Z AUTO 07008KT 10SM CLR 01/M05 A3026 RMK AO2 SLP256 T00061050
KTOR 190353Z AUTO 06007KT 10SM CLR 02/M05 A3025 RMK AO2 SLP254 T00171050
KTOR 190253Z AUTO 04010KT 10SM CLR 04/M04 A3023 RMK AO2 SLP243 T00391044 53009
KTOR 190153Z AUTO 04008KT 10SM CLR 07/M06 A3022 RMK AO2 SLP242 T00671056
KTOR 190053Z AUTO 02010KT 10SM CLR 11/M06 A3021 RMK AO2 SLP236 T01061061
KTOR 182353Z AUTO 33011G16KT 10SM CLR 12/M07 A3020 RMK AO2 PK WND 01027/2336 SLP231 T01221067 10128 20089 56005
KTOR 182253Z AUTO 34011G18KT 10SM CLR 12/M08 A3020 RMK AO2 SLP232 T01221078
KTOR 182153Z AUTO 34012G21KT 10SM CLR 12/M07 A3020 RMK AO2 PK WND 33027/2110 SLP232 T01221072
KTOR 182053Z AUTO 31015KT 10SM CLR 12/M06 A3022 RMK AO2 PK WND 33027/2003 SLP235 T01221061 56005
KTOR 181953Z AUTO 33017G25KT 10SM CLR 12/M07 A3022 RMK AO2 PK WND 32028/1943 SLP237 T01171067
KTOR 181853Z AUTO 35015G27KT 10SM CLR 11/M06 A3022 RMK AO2 PK WND 34031/1804 SLP240 T01061056
KTOR 181753Z AUTO 33018G29KT 10SM FEW055 09/M05 A3023 RMK AO2 PK WND 31029/1746 SLP245 T00941050 10094 21022 51015